sensor_id;sensor_type;location;lat;lon;timestamp;P1;durP1;ratioP1;P2;durP2;ratioP2
44995;SDS011;30729;49.486;10.792;2022-09-24T00:00:54;14.07;;;8.10;;
44995;SDS011;30729;49.486;10.792;2022-09-24T00:03:20;12.90;;;8.02;;
44995;SDS011;30729;49.486;10.792;2022-09-24T00:05:47;11.70;;;7.35;;
44995;SDS011;30729;49.486;10.792;2022-09-24T00:08:14;14.90;;;8.07;;
44995;SDS011;30729;49.486;10.792;2022-09-24T00:10:41;13.18;;;7.35;;
44995;SDS011;30729;49.486;10.792;2022-09-24T00:13:09;10.13;;;7.18;;
44995;SDS011;30729;49.486;10.792;2022-09-24T00:15:46;11.48;;;7.63;;
44995;SDS011;30729;49.486;10.792;2022-09-24T00:18:14;12.00;;;7.70;;
44995;SDS011;30729;49.486;10.792;2022-09-24T00:20:40;14.95;;;7.53;;
44995;SDS011;30729;49.486;10.792;2022-09-24T00:23:07;14.90;;;6.97;;
44995;SDS011;30729;49.486;10.792;2022-09-24T00:25:38;10.60;;;7.30;;
44995;SDS011;30729;49.486;10.792;2022-09-24T00:28:26;13.38;;;7.82;;
44995;SDS011;30729;49.486;10.792;2022-09-24T00:30:52;10.52;;;7.35;;
44995;SDS011;30729;49.486;10.792;2022-09-24T00:33:18;12.00;;;7.97;;
44995;SDS011;30729;49.486;10.792;2022-09-24T00:35:44;13.75;;;8.57;;
44995;SDS011;30729;49.486;10.792;2022-09-24T00:38:10;14.85;;;9.60;;
44995;SDS011;30729;49.486;10.792;2022-09-24T00:40:36;13.40;;;8.73;;
44995;SDS011;30729;49.486;10.792;2022-09-24T00:46:14;21.30;;;9.50;;
44995;SDS011;30729;49.486;10.792;2022-09-24T00:48:41;15.30;;;9.93;;
44995;SDS011;30729;49.486;10.792;2022-09-24T00:51:08;13.23;;;9.57;;
44995;SDS011;30729;49.486;10.792;2022-09-24T00:53:38;17.80;;;12.18;;
44995;SDS011;30729;49.486;10.792;2022-09-24T00:56:04;19.40;;;13.05;;
44995;SDS011;30729;49.486;10.792;2022-09-24T00:58:33;18.10;;;13.82;;
44995;SDS011;30729;49.486;10.792;2022-09-24T01:01:04;19.25;;;13.25;;
44995;SDS011;30729;49.486;10.792;2022-09-24T01:03:32;19.83;;;12.35;;
44995;SDS011;30729;49.486;10.792;2022-09-24T01:06:04;18.42;;;12.20;;
44995;SDS011;30729;49.486;10.792;2022-09-24T01:08:31;17.42;;;11.48;;
44995;SDS011;30729;49.486;10.792;2022-09-24T01:16:14;17.05;;;10.85;;
44995;SDS011;30729;49.486;10.792;2022-09-24T01:22:03;13.88;;;8.73;;
44995;SDS011;30729;49.486;10.792;2022-09-24T01:27:15;16.10;;;10.38;;
44995;SDS011;30729;49.486;10.792;2022-09-24T01:29:47;15.80;;;9.50;;
44995;SDS011;30729;49.486;10.792;2022-09-24T01:32:22;15.80;;;9.25;;
44995;SDS011;30729;49.486;10.792;2022-09-24T01:35:02;15.15;;;8.90;;
44995;SDS011;30729;49.486;10.792;2022-09-24T01:37:53;18.38;;;9.18;;
44995;SDS011;30729;49.486;10.792;2022-09-24T01:40:23;15.07;;;9.57;;
44995;SDS011;30729;49.486;10.792;2022-09-24T01:42:51;16.77;;;10.02;;
44995;SDS011;30729;49.486;10.792;2022-09-24T01:45:18;17.98;;;9.10;;
44995;SDS011;30729;49.486;10.792;2022-09-24T01:47:44;16.52;;;10.65;;
44995;SDS011;30729;49.486;10.792;2022-09-24T01:50:12;19.90;;;8.82;;
44995;SDS011;30729;49.486;10.792;2022-09-24T01:52:50;15.85;;;8.93;;
44995;SDS011;30729;49.486;10.792;2022-09-24T01:55:21;17.02;;;9.45;;
44995;SDS011;30729;49.486;10.792;2022-09-24T01:57:58;14.02;;;8.73;;
44995;SDS011;30729;49.486;10.792;2022-09-24T02:00:29;15.50;;;8.90;;
44995;SDS011;30729;49.486;10.792;2022-09-24T02:02:56;12.60;;;8.25;;
44995;SDS011;30729;49.486;10.792;2022-09-24T02:05:58;18.05;;;9.23;;
44995;SDS011;30729;49.486;10.792;2022-09-24T02:08:40;15.00;;;9.65;;
44995;SDS011;30729;49.486;10.792;2022-09-24T02:11:11;14.82;;;8.35;;
44995;SDS011;30729;49.486;10.792;2022-09-24T02:13:49;17.58;;;10.57;;
44995;SDS011;30729;49.486;10.792;2022-09-24T02:16:22;14.25;;;9.07;;
44995;SDS011;30729;49.486;10.792;2022-09-24T02:18:53;12.95;;;8.88;;
44995;SDS011;30729;49.486;10.792;2022-09-24T02:21:22;14.75;;;9.73;;
44995;SDS011;30729;49.486;10.792;2022-09-24T02:24:11;13.52;;;9.73;;
44995;SDS011;30729;49.486;10.792;2022-09-24T02:26:38;14.23;;;9.27;;
44995;SDS011;30729;49.486;10.792;2022-09-24T02:29:03;17.15;;;10.38;;
44995;SDS011;30729;49.486;10.792;2022-09-24T02:31:33;15.80;;;9.38;;
44995;SDS011;30729;49.486;10.792;2022-09-24T02:34:04;12.45;;;9.02;;
44995;SDS011;30729;49.486;10.792;2022-09-24T02:36:48;15.20;;;9.13;;
44995;SDS011;30729;49.486;10.792;2022-09-24T02:39:16;14.50;;;9.15;;
44995;SDS011;30729;49.486;10.792;2022-09-24T02:41:43;13.77;;;9.80;;
44995;SDS011;30729;49.486;10.792;2022-09-24T02:44:12;16.42;;;8.93;;
44995;SDS011;30729;49.486;10.792;2022-09-24T02:46:41;15.10;;;9.05;;
44995;SDS011;30729;49.486;10.792;2022-09-24T02:49:08;13.73;;;8.85;;
44995;SDS011;30729;49.486;10.792;2022-09-24T02:51:34;13.60;;;9.52;;
44995;SDS011;30729;49.486;10.792;2022-09-24T02:54:00;13.63;;;8.95;;
44995;SDS011;30729;49.486;10.792;2022-09-24T02:56:25;11.98;;;8.55;;
44995;SDS011;30729;49.486;10.792;2022-09-24T02:58:52;12.45;;;8.73;;
44995;SDS011;30729;49.486;10.792;2022-09-24T03:01:17;13.80;;;8.75;;
44995;SDS011;30729;49.486;10.792;2022-09-24T03:03:43;17.13;;;9.70;;
44995;SDS011;30729;49.486;10.792;2022-09-24T03:06:09;15.70;;;9.02;;
44995;SDS011;30729;49.486;10.792;2022-09-24T03:08:36;12.65;;;9.15;;
44995;SDS011;30729;49.486;10.792;2022-09-24T03:11:02;14.98;;;9.52;;
44995;SDS011;30729;49.486;10.792;2022-09-24T03:13:28;12.65;;;9.10;;
44995;SDS011;30729;49.486;10.792;2022-09-24T03:15:53;18.67;;;10.02;;
44995;SDS011;30729;49.486;10.792;2022-09-24T03:18:19;13.55;;;9.30;;
44995;SDS011;30729;49.486;10.792;2022-09-24T03:20:52;13.07;;;9.07;;
44995;SDS011;30729;49.486;10.792;2022-09-24T03:23:22;14.85;;;8.82;;
44995;SDS011;30729;49.486;10.792;2022-09-24T03:25:48;14.23;;;8.98;;
44995;SDS011;30729;49.486;10.792;2022-09-24T03:28:13;13.45;;;8.55;;
44995;SDS011;30729;49.486;10.792;2022-09-24T03:30:38;15.32;;;9.27;;
44995;SDS011;30729;49.486;10.792;2022-09-24T03:33:22;17.63;;;9.25;;
44995;SDS011;30729;49.486;10.792;2022-09-24T03:35:48;12.30;;;8.73;;
44995;SDS011;30729;49.486;10.792;2022-09-24T03:38:13;15.43;;;8.82;;
44995;SDS011;30729;49.486;10.792;2022-09-24T03:40:38;12.82;;;8.98;;
44995;SDS011;30729;49.486;10.792;2022-09-24T03:43:04;13.02;;;8.80;;
44995;SDS011;30729;49.486;10.792;2022-09-24T03:45:29;13.35;;;9.15;;
44995;SDS011;30729;49.486;10.792;2022-09-24T03:47:54;13.15;;;8.98;;
44995;SDS011;30729;49.486;10.792;2022-09-24T03:50:20;14.50;;;8.43;;
44995;SDS011;30729;49.486;10.792;2022-09-24T03:52:45;13.48;;;8.98;;
44995;SDS011;30729;49.486;10.792;2022-09-24T03:55:11;12.18;;;8.55;;
44995;SDS011;30729;49.486;10.792;2022-09-24T03:57:36;13.52;;;8.48;;
44995;SDS011;30729;49.486;10.792;2022-09-24T04:00:02;13.73;;;8.57;;
44995;SDS011;30729;49.486;10.792;2022-09-24T04:02:28;11.68;;;8.10;;
44995;SDS011;30729;49.486;10.792;2022-09-24T04:04:53;15.27;;;9.25;;
44995;SDS011;30729;49.486;10.792;2022-09-24T04:07:19;14.20;;;8.70;;
44995;SDS011;30729;49.486;10.792;2022-09-24T04:09:44;14.57;;;9.13;;
44995;SDS011;30729;49.486;10.792;2022-09-24T04:12:09;14.65;;;8.68;;
44995;SDS011;30729;49.486;10.792;2022-09-24T04:14:35;12.98;;;8.77;;
44995;SDS011;30729;49.486;10.792;2022-09-24T04:17:01;14.75;;;8.80;;
44995;SDS011;30729;49.486;10.792;2022-09-24T04:19:27;12.45;;;8.57;;
44995;SDS011;30729;49.486;10.792;2022-09-24T04:21:54;13.00;;;8.35;;
44995;SDS011;30729;49.486;10.792;2022-09-24T04:24:19;13.30;;;8.55;;
44995;SDS011;30729;49.486;10.792;2022-09-24T04:26:45;15.32;;;8.48;;
44995;SDS011;30729;49.486;10.792;2022-09-24T04:29:10;14.75;;;9.48;;
44995;SDS011;30729;49.486;10.792;2022-09-24T04:31:37;12.85;;;9.00;;
44995;SDS011;30729;49.486;10.792;2022-09-24T04:34:04;13.30;;;9.15;;
44995;SDS011;30729;49.486;10.792;2022-09-24T04:36:29;14.07;;;9.48;;
44995;SDS011;30729;49.486;10.792;2022-09-24T04:38:55;13.95;;;8.95;;
44995;SDS011;30729;49.486;10.792;2022-09-24T04:41:21;12.73;;;8.70;;
44995;SDS011;30729;49.486;10.792;2022-09-24T04:43:47;13.02;;;8.75;;
44995;SDS011;30729;49.486;10.792;2022-09-24T04:46:12;16.83;;;9.40;;
44995;SDS011;30729;49.486;10.792;2022-09-24T04:48:38;15.70;;;9.93;;
44995;SDS011;30729;49.486;10.792;2022-09-24T04:51:06;15.68;;;9.27;;
44995;SDS011;30729;49.486;10.792;2022-09-24T04:53:33;18.30;;;10.60;;
44995;SDS011;30729;49.486;10.792;2022-09-24T04:56:01;16.00;;;11.10;;
44995;SDS011;30729;49.486;10.792;2022-09-24T04:58:29;14.30;;;9.00;;
44995;SDS011;30729;49.486;10.792;2022-09-24T05:00:55;16.45;;;10.35;;
44995;SDS011;30729;49.486;10.792;2022-09-24T05:03:21;14.38;;;9.38;;
44995;SDS011;30729;49.486;10.792;2022-09-24T05:05:46;17.30;;;9.43;;
44995;SDS011;30729;49.486;10.792;2022-09-24T05:08:12;12.80;;;9.60;;
44995;SDS011;30729;49.486;10.792;2022-09-24T05:10:38;12.38;;;9.60;;
44995;SDS011;30729;49.486;10.792;2022-09-24T05:13:04;13.85;;;8.73;;
44995;SDS011;30729;49.486;10.792;2022-09-24T05:15:29;16.58;;;11.05;;
44995;SDS011;30729;49.486;10.792;2022-09-24T05:17:55;19.48;;;14.27;;
44995;SDS011;30729;49.486;10.792;2022-09-24T05:20:21;17.00;;;11.07;;
44995;SDS011;30729;49.486;10.792;2022-09-24T05:22:47;14.50;;;9.77;;
44995;SDS011;30729;49.486;10.792;2022-09-24T05:25:14;15.27;;;10.98;;
44995;SDS011;30729;49.486;10.792;2022-09-24T05:27:46;19.42;;;15.63;;
44995;SDS011;30729;49.486;10.792;2022-09-24T05:30:13;20.98;;;14.73;;
44995;SDS011;30729;49.486;10.792;2022-09-24T05:32:40;19.05;;;15.15;;
44995;SDS011;30729;49.486;10.792;2022-09-24T05:35:06;19.10;;;12.52;;
44995;SDS011;30729;49.486;10.792;2022-09-24T05:37:32;15.40;;;10.27;;
44995;SDS011;30729;49.486;10.792;2022-09-24T05:39:59;14.07;;;8.93;;
44995;SDS011;30729;49.486;10.792;2022-09-24T05:42:44;14.52;;;9.50;;
44995;SDS011;30729;49.486;10.792;2022-09-24T05:45:10;12.65;;;9.10;;
44995;SDS011;30729;49.486;10.792;2022-09-24T05:47:36;13.82;;;10.13;;
44995;SDS011;30729;49.486;10.792;2022-09-24T05:50:01;13.48;;;8.98;;
44995;SDS011;30729;49.486;10.792;2022-09-24T05:52:27;13.98;;;9.07;;
44995;SDS011;30729;49.486;10.792;2022-09-24T05:54:52;14.23;;;8.90;;
44995;SDS011;30729;49.486;10.792;2022-09-24T05:57:17;12.73;;;8.93;;
44995;SDS011;30729;49.486;10.792;2022-09-24T05:59:43;13.43;;;9.13;;
44995;SDS011;30729;49.486;10.792;2022-09-24T06:02:09;17.10;;;9.40;;
44995;SDS011;30729;49.486;10.792;2022-09-24T06:04:35;14.32;;;8.23;;
44995;SDS011;30729;49.486;10.792;2022-09-24T06:07:00;13.48;;;8.80;;
44995;SDS011;30729;49.486;10.792;2022-09-24T06:09:27;15.93;;;10.15;;
44995;SDS011;30729;49.486;10.792;2022-09-24T06:11:52;12.38;;;9.70;;
44995;SDS011;30729;49.486;10.792;2022-09-24T06:14:18;14.00;;;8.80;;
44995;SDS011;30729;49.486;10.792;2022-09-24T06:16:44;12.38;;;9.70;;
44995;SDS011;30729;49.486;10.792;2022-09-24T06:19:10;14.65;;;9.93;;
44995;SDS011;30729;49.486;10.792;2022-09-24T06:21:35;15.77;;;10.88;;
44995;SDS011;30729;49.486;10.792;2022-09-24T06:24:00;18.67;;;12.05;;
44995;SDS011;30729;49.486;10.792;2022-09-24T06:26:27;15.95;;;11.52;;
44995;SDS011;30729;49.486;10.792;2022-09-24T06:28:53;17.95;;;11.73;;
44995;SDS011;30729;49.486;10.792;2022-09-24T06:31:18;17.20;;;13.43;;
44995;SDS011;30729;49.486;10.792;2022-09-24T06:33:44;17.95;;;11.68;;
44995;SDS011;30729;49.486;10.792;2022-09-24T06:36:09;16.73;;;10.57;;
44995;SDS011;30729;49.486;10.792;2022-09-24T06:38:35;19.50;;;11.48;;
44995;SDS011;30729;49.486;10.792;2022-09-24T06:41:01;15.18;;;11.20;;
44995;SDS011;30729;49.486;10.792;2022-09-24T06:43:28;15.30;;;12.00;;
44995;SDS011;30729;49.486;10.792;2022-09-24T06:45:55;25.35;;;14.38;;
44995;SDS011;30729;49.486;10.792;2022-09-24T06:48:22;18.50;;;11.43;;
44995;SDS011;30729;49.486;10.792;2022-09-24T06:50:47;18.05;;;11.50;;
44995;SDS011;30729;49.486;10.792;2022-09-24T06:53:13;20.90;;;12.98;;
44995;SDS011;30729;49.486;10.792;2022-09-24T06:55:38;13.35;;;10.07;;
44995;SDS011;30729;49.486;10.792;2022-09-24T06:58:05;15.88;;;10.18;;
44995;SDS011;30729;49.486;10.792;2022-09-24T07:00:32;12.10;;;9.18;;
44995;SDS011;30729;49.486;10.792;2022-09-24T07:02:57;16.23;;;9.50;;
44995;SDS011;30729;49.486;10.792;2022-09-24T07:05:23;14.93;;;9.52;;
44995;SDS011;30729;49.486;10.792;2022-09-24T07:07:48;14.38;;;9.82;;
44995;SDS011;30729;49.486;10.792;2022-09-24T07:10:13;13.63;;;10.02;;
44995;SDS011;30729;49.486;10.792;2022-09-24T07:12:40;13.70;;;9.05;;
44995;SDS011;30729;49.486;10.792;2022-09-24T07:15:06;13.25;;;9.15;;
44995;SDS011;30729;49.486;10.792;2022-09-24T07:17:31;13.10;;;9.05;;
44995;SDS011;30729;49.486;10.792;2022-09-24T07:19:57;12.43;;;9.20;;
44995;SDS011;30729;49.486;10.792;2022-09-24T07:22:22;13.57;;;9.27;;
44995;SDS011;30729;49.486;10.792;2022-09-24T07:24:48;12.32;;;9.27;;
44995;SDS011;30729;49.486;10.792;2022-09-24T07:27:13;17.80;;;10.75;;
44995;SDS011;30729;49.486;10.792;2022-09-24T07:29:39;16.00;;;10.40;;
44995;SDS011;30729;49.486;10.792;2022-09-24T07:32:04;15.95;;;11.32;;
44995;SDS011;30729;49.486;10.792;2022-09-24T07:34:31;14.70;;;10.48;;
44995;SDS011;30729;49.486;10.792;2022-09-24T07:36:57;16.45;;;10.50;;
44995;SDS011;30729;49.486;10.792;2022-09-24T07:39:23;16.60;;;10.13;;
44995;SDS011;30729;49.486;10.792;2022-09-24T07:41:49;13.93;;;9.98;;
44995;SDS011;30729;49.486;10.792;2022-09-24T07:44:17;13.52;;;9.57;;
44995;SDS011;30729;49.486;10.792;2022-09-24T07:46:47;14.80;;;9.57;;
44995;SDS011;30729;49.486;10.792;2022-09-24T07:49:12;14.95;;;10.45;;
44995;SDS011;30729;49.486;10.792;2022-09-24T07:51:38;13.98;;;9.90;;
44995;SDS011;30729;49.486;10.792;2022-09-24T07:54:03;14.57;;;9.43;;
44995;SDS011;30729;49.486;10.792;2022-09-24T07:56:29;13.00;;;9.10;;
44995;SDS011;30729;49.486;10.792;2022-09-24T07:58:56;12.50;;;8.88;;
44995;SDS011;30729;49.486;10.792;2022-09-24T08:01:22;13.90;;;9.00;;
44995;SDS011;30729;49.486;10.792;2022-09-24T08:03:49;11.60;;;8.77;;
44995;SDS011;30729;49.486;10.792;2022-09-24T08:06:15;11.88;;;8.80;;
44995;SDS011;30729;49.486;10.792;2022-09-24T08:08:41;21.77;;;10.52;;
44995;SDS011;30729;49.486;10.792;2022-09-24T08:11:08;13.50;;;9.10;;
44995;SDS011;30729;49.486;10.792;2022-09-24T08:13:36;14.15;;;8.43;;
44995;SDS011;30729;49.486;10.792;2022-09-24T08:16:02;12.70;;;9.15;;
44995;SDS011;30729;49.486;10.792;2022-09-24T08:18:29;13.57;;;9.55;;
44995;SDS011;30729;49.486;10.792;2022-09-24T08:20:55;15.05;;;9.63;;
44995;SDS011;30729;49.486;10.792;2022-09-24T08:23:21;14.77;;;10.20;;
44995;SDS011;30729;49.486;10.792;2022-09-24T08:25:47;19.05;;;11.52;;
44995;SDS011;30729;49.486;10.792;2022-09-24T08:28:12;15.13;;;10.90;;
44995;SDS011;30729;49.486;10.792;2022-09-24T08:30:41;13.48;;;10.35;;
44995;SDS011;30729;49.486;10.792;2022-09-24T08:33:08;16.58;;;11.45;;
44995;SDS011;30729;49.486;10.792;2022-09-24T08:35:34;15.40;;;10.80;;
44995;SDS011;30729;49.486;10.792;2022-09-24T08:38:01;17.20;;;11.85;;
44995;SDS011;30729;49.486;10.792;2022-09-24T08:40:32;16.65;;;11.80;;
44995;SDS011;30729;49.486;10.792;2022-09-24T08:45:52;19.95;;;12.93;;
44995;SDS011;30729;49.486;10.792;2022-09-24T08:48:40;17.75;;;11.65;;
44995;SDS011;30729;49.486;10.792;2022-09-24T08:51:12;16.83;;;12.40;;
44995;SDS011;30729;49.486;10.792;2022-09-24T08:53:59;18.73;;;13.55;;
44995;SDS011;30729;49.486;10.792;2022-09-24T08:56:28;18.02;;;12.23;;
44995;SDS011;30729;49.486;10.792;2022-09-24T09:09:53;17.70;;;12.10;;
44995;SDS011;30729;49.486;10.792;2022-09-24T09:12:38;17.33;;;12.20;;
44995;SDS011;30729;49.486;10.792;2022-09-24T09:22:48;17.33;;;12.37;;
44995;SDS011;30729;49.486;10.792;2022-09-24T09:25:22;15.73;;;12.80;;
44995;SDS011;30729;49.486;10.792;2022-09-24T09:30:22;17.33;;;11.82;;
44995;SDS011;30729;49.486;10.792;2022-09-24T09:35:49;17.33;;;12.55;;
44995;SDS011;30729;49.486;10.792;2022-09-24T09:38:26;15.98;;;12.25;;
44995;SDS011;30729;49.486;10.792;2022-09-24T09:41:05;17.63;;;11.75;;
44995;SDS011;30729;49.486;10.792;2022-09-24T09:43:43;16.40;;;10.93;;
44995;SDS011;30729;49.486;10.792;2022-09-24T09:46:13;17.30;;;11.88;;
44995;SDS011;30729;49.486;10.792;2022-09-24T09:48:44;21.08;;;11.02;;
44995;SDS011;30729;49.486;10.792;2022-09-24T09:51:16;17.95;;;11.30;;
44995;SDS011;30729;49.486;10.792;2022-09-24T09:53:55;17.33;;;11.38;;
44995;SDS011;30729;49.486;10.792;2022-09-24T09:59:27;15.70;;;11.52;;
44995;SDS011;30729;49.486;10.792;2022-09-24T10:01:46;16.42;;;12.23;;
44995;SDS011;30729;49.486;10.792;2022-09-24T10:04:27;15.75;;;11.63;;
44995;SDS011;30729;49.486;10.792;2022-09-24T10:07:11;18.38;;;12.15;;
44995;SDS011;30729;49.486;10.792;2022-09-24T10:09:38;17.48;;;11.23;;
44995;SDS011;30729;49.486;10.792;2022-09-24T10:14:55;15.18;;;10.20;;
44995;SDS011;30729;49.486;10.792;2022-09-24T10:17:21;20.90;;;11.68;;
44995;SDS011;30729;49.486;10.792;2022-09-24T10:19:49;17.00;;;10.73;;
44995;SDS011;30729;49.486;10.792;2022-09-24T10:22:19;15.02;;;9.80;;
44995;SDS011;30729;49.486;10.792;2022-09-24T10:24:47;14.57;;;9.95;;
44995;SDS011;30729;49.486;10.792;2022-09-24T10:27:19;14.80;;;9.52;;
44995;SDS011;30729;49.486;10.792;2022-09-24T10:29:53;15.98;;;10.05;;
44995;SDS011;30729;49.486;10.792;2022-09-24T10:32:38;15.63;;;10.27;;
44995;SDS011;30729;49.486;10.792;2022-09-24T10:35:22;15.55;;;10.10;;
44995;SDS011;30729;49.486;10.792;2022-09-24T10:37:52;13.32;;;8.45;;
44995;SDS011;30729;49.486;10.792;2022-09-24T10:40:23;12.98;;;9.45;;
44995;SDS011;30729;49.486;10.792;2022-09-24T10:42:58;15.68;;;9.98;;
44995;SDS011;30729;49.486;10.792;2022-09-24T10:45:38;15.30;;;10.85;;
44995;SDS011;30729;49.486;10.792;2022-09-24T10:48:21;15.07;;;11.18;;
44995;SDS011;30729;49.486;10.792;2022-09-24T10:54:37;15.32;;;10.00;;
44995;SDS011;30729;49.486;10.792;2022-09-24T10:56:58;16.02;;;9.63;;
44995;SDS011;30729;49.486;10.792;2022-09-24T11:02:35;14.75;;;10.10;;
44995;SDS011;30729;49.486;10.792;2022-09-24T11:05:18;15.23;;;10.10;;
44995;SDS011;30729;49.486;10.792;2022-09-24T11:10:30;15.52;;;10.27;;
44995;SDS011;30729;49.486;10.792;2022-09-24T11:16:21;13.65;;;10.05;;
44995;SDS011;30729;49.486;10.792;2022-09-24T11:19:12;15.03;;;10.17;;
44995;SDS011;30729;49.486;10.792;2022-09-24T11:38:14;14.15;;;10.05;;
44995;SDS011;30729;49.486;10.792;2022-09-24T11:41:02;16.83;;;10.75;;
44995;SDS011;30729;49.486;10.792;2022-09-24T11:43:55;15.02;;;10.07;;
44995;SDS011;30729;49.486;10.792;2022-09-24T11:49:00;14.75;;;9.63;;
44995;SDS011;30729;49.486;10.792;2022-09-24T11:51:53;16.20;;;9.50;;
44995;SDS011;30729;49.486;10.792;2022-09-24T11:54:39;11.98;;;9.52;;
44995;SDS011;30729;49.486;10.792;2022-09-24T11:57:23;12.82;;;8.82;;
44995;SDS011;30729;49.486;10.792;2022-09-24T11:59:52;16.20;;;8.52;;
44995;SDS011;30729;49.486;10.792;2022-09-24T12:02:30;11.55;;;7.95;;
44995;SDS011;30729;49.486;10.792;2022-09-24T12:07:32;13.65;;;8.30;;
44995;SDS011;30729;49.486;10.792;2022-09-24T12:10:03;11.90;;;7.68;;
44995;SDS011;30729;49.486;10.792;2022-09-24T12:12:40;13.02;;;7.32;;
44995;SDS011;30729;49.486;10.792;2022-09-24T12:15:14;10.98;;;6.82;;
44995;SDS011;30729;49.486;10.792;2022-09-24T12:20:24;10.52;;;7.82;;
44995;SDS011;30729;49.486;10.792;2022-09-24T12:22:56;11.35;;;7.93;;
44995;SDS011;30729;49.486;10.792;2022-09-24T12:25:43;10.88;;;7.82;;
44995;SDS011;30729;49.486;10.792;2022-09-24T12:28:11;12.10;;;7.40;;
44995;SDS011;30729;49.486;10.792;2022-09-24T12:30:44;14.00;;;7.93;;
44995;SDS011;30729;49.486;10.792;2022-09-24T12:33:51;13.10;;;8.57;;
44995;SDS011;30729;49.486;10.792;2022-09-24T12:38:52;14.00;;;7.72;;
44995;SDS011;30729;49.486;10.792;2022-09-24T12:42:03;13.18;;;8.10;;
44995;SDS011;30729;49.486;10.792;2022-09-24T12:46:40;12.77;;;7.25;;
44995;SDS011;30729;49.486;10.792;2022-09-24T12:49:52;13.48;;;8.88;;
44995;SDS011;30729;49.486;10.792;2022-09-24T12:52:00;19.98;;;11.05;;
44995;SDS011;30729;49.486;10.792;2022-09-24T12:54:39;15.77;;;9.35;;
44995;SDS011;30729;49.486;10.792;2022-09-24T12:59:48;24.25;;;14.32;;
44995;SDS011;30729;49.486;10.792;2022-09-24T13:02:19;18.35;;;11.65;;
44995;SDS011;30729;49.486;10.792;2022-09-24T13:07:36;11.82;;;7.95;;
44995;SDS011;30729;49.486;10.792;2022-09-24T13:12:41;12.70;;;8.55;;
44995;SDS011;30729;49.486;10.792;2022-09-24T13:15:18;13.38;;;8.55;;
44995;SDS011;30729;49.486;10.792;2022-09-24T13:18:03;14.85;;;8.77;;
44995;SDS011;30729;49.486;10.792;2022-09-24T13:20:39;13.07;;;9.07;;
44995;SDS011;30729;49.486;10.792;2022-09-24T13:26:03;16.55;;;10.27;;
44995;SDS011;30729;49.486;10.792;2022-09-24T13:39:21;16.33;;;10.23;;
44995;SDS011;30729;49.486;10.792;2022-09-24T13:42:06;15.40;;;10.13;;
44995;SDS011;30729;49.486;10.792;2022-09-24T13:44:42;13.90;;;10.40;;
44995;SDS011;30729;49.486;10.792;2022-09-24T13:47:23;14.07;;;10.32;;
44995;SDS011;30729;49.486;10.792;2022-09-24T13:50:11;12.38;;;9.30;;
44995;SDS011;30729;49.486;10.792;2022-09-24T13:53:23;16.45;;;8.73;;
44995;SDS011;30729;49.486;10.792;2022-09-24T13:55:51;15.10;;;10.13;;
44995;SDS011;30729;49.486;10.792;2022-09-24T14:00:52;14.10;;;9.35;;
44995;SDS011;30729;49.486;10.792;2022-09-24T14:03:20;17.58;;;10.35;;
44995;SDS011;30729;49.486;10.792;2022-09-24T14:05:49;15.77;;;10.25;;
44995;SDS011;30729;49.486;10.792;2022-09-24T14:08:16;19.10;;;10.07;;
44995;SDS011;30729;49.486;10.792;2022-09-24T14:10:45;15.05;;;9.77;;
44995;SDS011;30729;49.486;10.792;2022-09-24T14:16:05;13.73;;;9.77;;
44995;SDS011;30729;49.486;10.792;2022-09-24T14:18:32;11.68;;;8.27;;
44995;SDS011;30729;49.486;10.792;2022-09-24T14:23:42;19.85;;;10.80;;
44995;SDS011;30729;49.486;10.792;2022-09-24T14:26:17;15.57;;;8.75;;
44995;SDS011;30729;49.486;10.792;2022-09-24T14:28:50;15.30;;;9.32;;
44995;SDS011;30729;49.486;10.792;2022-09-24T14:31:16;11.27;;;8.15;;
44995;SDS011;30729;49.486;10.792;2022-09-24T14:33:42;13.63;;;9.55;;
44995;SDS011;30729;49.486;10.792;2022-09-24T14:36:08;12.98;;;8.63;;
44995;SDS011;30729;49.486;10.792;2022-09-24T14:38:43;20.70;;;9.68;;
44995;SDS011;30729;49.486;10.792;2022-09-24T14:41:14;12.20;;;8.60;;
44995;SDS011;30729;49.486;10.792;2022-09-24T14:43:45;13.73;;;7.80;;
44995;SDS011;30729;49.486;10.792;2022-09-24T14:46:21;12.90;;;8.10;;
44995;SDS011;30729;49.486;10.792;2022-09-24T14:48:49;12.90;;;8.35;;
44995;SDS011;30729;49.486;10.792;2022-09-24T14:51:22;13.30;;;7.50;;
44995;SDS011;30729;49.486;10.792;2022-09-24T14:53:56;13.00;;;8.25;;
44995;SDS011;30729;49.486;10.792;2022-09-24T14:56:32;14.77;;;8.27;;
44995;SDS011;30729;49.486;10.792;2022-09-24T14:58:59;13.50;;;7.88;;
44995;SDS011;30729;49.486;10.792;2022-09-24T15:01:32;13.10;;;8.48;;
44995;SDS011;30729;49.486;10.792;2022-09-24T15:04:01;11.68;;;7.78;;
44995;SDS011;30729;49.486;10.792;2022-09-24T15:06:35;11.82;;;7.80;;
44995;SDS011;30729;49.486;10.792;2022-09-24T15:11:32;15.38;;;11.30;;
44995;SDS011;30729;49.486;10.792;2022-09-24T15:14:01;14.93;;;9.90;;
44995;SDS011;30729;49.486;10.792;2022-09-24T15:16:28;13.68;;;10.13;;
44995;SDS011;30729;49.486;10.792;2022-09-24T15:21:32;15.60;;;9.20;;
44995;SDS011;30729;49.486;10.792;2022-09-24T15:23:58;14.35;;;8.45;;
44995;SDS011;30729;49.486;10.792;2022-09-24T15:26:24;12.50;;;8.52;;
44995;SDS011;30729;49.486;10.792;2022-09-24T15:28:55;18.25;;;9.98;;
44995;SDS011;30729;49.486;10.792;2022-09-24T15:31:22;16.35;;;8.50;;
44995;SDS011;30729;49.486;10.792;2022-09-24T15:33:48;13.15;;;8.60;;
44995;SDS011;30729;49.486;10.792;2022-09-24T15:36:13;12.20;;;8.82;;
44995;SDS011;30729;49.486;10.792;2022-09-24T15:38:42;11.68;;;8.70;;
44995;SDS011;30729;49.486;10.792;2022-09-24T15:41:08;14.80;;;9.43;;
44995;SDS011;30729;49.486;10.792;2022-09-24T15:43:34;14.48;;;8.52;;
44995;SDS011;30729;49.486;10.792;2022-09-24T15:45:59;15.25;;;10.55;;
44995;SDS011;30729;49.486;10.792;2022-09-24T15:48:25;13.40;;;9.30;;
44995;SDS011;30729;49.486;10.792;2022-09-24T15:50:50;15.20;;;8.80;;
44995;SDS011;30729;49.486;10.792;2022-09-24T15:53:17;13.40;;;8.35;;
44995;SDS011;30729;49.486;10.792;2022-09-24T15:55:49;14.18;;;7.88;;
44995;SDS011;30729;49.486;10.792;2022-09-24T15:58:18;14.57;;;7.15;;
44995;SDS011;30729;49.486;10.792;2022-09-24T16:00:43;22.95;;;14.40;;
44995;SDS011;30729;49.486;10.792;2022-09-24T16:03:12;11.00;;;7.80;;
44995;SDS011;30729;49.486;10.792;2022-09-24T16:05:41;13.35;;;7.53;;
44995;SDS011;30729;49.486;10.792;2022-09-24T16:08:07;13.43;;;6.80;;
44995;SDS011;30729;49.486;10.792;2022-09-24T16:10:32;13.07;;;8.20;;
44995;SDS011;30729;49.486;10.792;2022-09-24T16:12:57;11.65;;;7.68;;
44995;SDS011;30729;49.486;10.792;2022-09-24T16:15:23;12.02;;;6.68;;
44995;SDS011;30729;49.486;10.792;2022-09-24T16:17:48;19.08;;;10.43;;
44995;SDS011;30729;49.486;10.792;2022-09-24T16:20:14;30.33;;;20.45;;
44995;SDS011;30729;49.486;10.792;2022-09-24T16:22:40;27.38;;;17.45;;
44995;SDS011;30729;49.486;10.792;2022-09-24T16:25:05;15.45;;;10.77;;
44995;SDS011;30729;49.486;10.792;2022-09-24T16:27:31;11.75;;;7.43;;
44995;SDS011;30729;49.486;10.792;2022-09-24T16:29:59;13.80;;;8.05;;
44995;SDS011;30729;49.486;10.792;2022-09-24T16:32:24;11.88;;;7.47;;
44995;SDS011;30729;49.486;10.792;2022-09-24T16:34:50;11.68;;;8.07;;